sensor_id;sensor_type;location;lat;lon;timestamp;P1;durP1;ratioP1;P2;durP2;ratioP2
64868;SDS011;51349;52.424;10.840;2023-06-19T00:00:16;7.75;;;7.13;;
64868;SDS011;51349;52.424;10.840;2023-06-19T00:05:17;8.05;;;7.45;;
64868;SDS011;51349;52.424;10.840;2023-06-19T00:10:18;8.02;;;7.32;;
64868;SDS011;51349;52.424;10.840;2023-06-19T00:15:19;7.88;;;7.18;;
64868;SDS011;51349;52.424;10.840;2023-06-19T00:20:19;8.07;;;7.40;;
64868;SDS011;51349;52.424;10.840;2023-06-19T00:25:20;8.10;;;7.30;;
64868;SDS011;51349;52.424;10.840;2023-06-19T00:30:21;8.73;;;8.00;;
64868;SDS011;51349;52.424;10.840;2023-06-19T00:35:21;10.52;;;7.70;;
64868;SDS011;51349;52.424;10.840;2023-06-19T00:40:29;8.45;;;7.50;;
64868;SDS011;51349;52.424;10.840;2023-06-19T00:45:31;7.90;;;7.30;;
64868;SDS011;51349;52.424;10.840;2023-06-19T00:50:32;7.63;;;7.10;;
64868;SDS011;51349;52.424;10.840;2023-06-19T00:55:33;8.02;;;7.32;;
64868;SDS011;51349;52.424;10.840;2023-06-19T01:00:34;7.72;;;7.13;;
64868;SDS011;51349;52.424;10.840;2023-06-19T01:05:34;8.27;;;7.68;;
64868;SDS011;51349;52.424;10.840;2023-06-19T01:10:36;7.57;;;6.97;;
64868;SDS011;51349;52.424;10.840;2023-06-19T01:15:39;7.40;;;6.90;;
64868;SDS011;51349;52.424;10.840;2023-06-19T01:20:42;8.05;;;7.22;;
64868;SDS011;51349;52.424;10.840;2023-06-19T01:25:43;7.40;;;6.90;;
64868;SDS011;51349;52.424;10.840;2023-06-19T01:30:43;7.70;;;7.15;;
64868;SDS011;51349;52.424;10.840;2023-06-19T01:35:45;8.27;;;7.68;;
64868;SDS011;51349;52.424;10.840;2023-06-19T01:40:52;8.10;;;7.50;;
64868;SDS011;51349;52.424;10.840;2023-06-19T01:45:54;7.90;;;7.40;;
64868;SDS011;51349;52.424;10.840;2023-06-19T01:50:55;7.97;;;7.47;;
64868;SDS011;51349;52.424;10.840;2023-06-19T01:55:56;8.88;;;8.18;;
64868;SDS011;51349;52.424;10.840;2023-06-19T02:00:57;8.63;;;8.02;;
64868;SDS011;51349;52.424;10.840;2023-06-19T02:05:57;7.68;;;7.15;;
64868;SDS011;51349;52.424;10.840;2023-06-19T02:10:58;8.57;;;7.85;;
64868;SDS011;51349;52.424;10.840;2023-06-19T02:15:59;8.05;;;7.55;;
64868;SDS011;51349;52.424;10.840;2023-06-19T02:20:59;8.30;;;7.70;;
64868;SDS011;51349;52.424;10.840;2023-06-19T02:26:00;8.40;;;7.85;;
64868;SDS011;51349;52.424;10.840;2023-06-19T02:31:01;8.52;;;7.85;;
64868;SDS011;51349;52.424;10.840;2023-06-19T02:36:01;8.07;;;7.47;;
64868;SDS011;51349;52.424;10.840;2023-06-19T02:41:03;8.77;;;8.07;;
64868;SDS011;51349;52.424;10.840;2023-06-19T02:46:03;8.25;;;7.55;;
64868;SDS011;51349;52.424;10.840;2023-06-19T02:51:04;8.50;;;7.80;;
64868;SDS011;51349;52.424;10.840;2023-06-19T02:56:05;8.18;;;7.68;;
64868;SDS011;51349;52.424;10.840;2023-06-19T03:01:06;7.53;;;7.03;;
64868;SDS011;51349;52.424;10.840;2023-06-19T03:06:08;8.45;;;7.75;;
64868;SDS011;51349;52.424;10.840;2023-06-19T03:11:09;7.72;;;7.10;;
64868;SDS011;51349;52.424;10.840;2023-06-19T03:16:11;8.90;;;8.20;;
64868;SDS011;51349;52.424;10.840;2023-06-19T03:21:12;9.82;;;8.55;;
64868;SDS011;51349;52.424;10.840;2023-06-19T03:26:13;8.55;;;7.85;;
64868;SDS011;51349;52.424;10.840;2023-06-19T03:31:14;8.43;;;7.65;;
64868;SDS011;51349;52.424;10.840;2023-06-19T03:36:15;8.65;;;7.95;;
64868;SDS011;51349;52.424;10.840;2023-06-19T03:41:16;8.27;;;7.68;;
64868;SDS011;51349;52.424;10.840;2023-06-19T03:46:16;7.95;;;7.35;;
64868;SDS011;51349;52.424;10.840;2023-06-19T03:51:17;8.73;;;8.10;;
64868;SDS011;51349;52.424;10.840;2023-06-19T03:56:18;8.60;;;7.90;;
64868;SDS011;51349;52.424;10.840;2023-06-19T04:01:18;9.02;;;8.23;;
64868;SDS011;51349;52.424;10.840;2023-06-19T04:06:19;8.07;;;7.47;;
64868;SDS011;51349;52.424;10.840;2023-06-19T04:11:20;8.50;;;7.90;;
64868;SDS011;51349;52.424;10.840;2023-06-19T04:16:20;7.95;;;7.25;;
64868;SDS011;51349;52.424;10.840;2023-06-19T04:21:21;8.35;;;7.65;;
64868;SDS011;51349;52.424;10.840;2023-06-19T04:26:22;8.77;;;7.93;;
64868;SDS011;51349;52.424;10.840;2023-06-19T04:31:24;8.60;;;8.00;;
64868;SDS011;51349;52.424;10.840;2023-06-19T04:36:26;8.30;;;7.70;;
64868;SDS011;51349;52.424;10.840;2023-06-19T04:41:27;8.52;;;7.85;;
64868;SDS011;51349;52.424;10.840;2023-06-19T04:46:27;8.00;;;7.40;;
64868;SDS011;51349;52.424;10.840;2023-06-19T04:51:28;7.72;;;7.22;;
64868;SDS011;51349;52.424;10.840;2023-06-19T04:56:29;8.32;;;7.70;;
64868;SDS011;51349;52.424;10.840;2023-06-19T05:01:30;8.00;;;7.40;;
64868;SDS011;51349;52.424;10.840;2023-06-19T05:06:31;8.07;;;7.47;;
64868;SDS011;51349;52.424;10.840;2023-06-19T05:11:31;8.25;;;7.57;;
64868;SDS011;51349;52.424;10.840;2023-06-19T05:16:33;8.80;;;8.00;;
64868;SDS011;51349;52.424;10.840;2023-06-19T05:21:34;8.73;;;7.93;;
64868;SDS011;51349;52.424;10.840;2023-06-19T05:26:35;8.57;;;7.72;;
64868;SDS011;51349;52.424;10.840;2023-06-19T05:31:35;9.23;;;8.57;;
64868;SDS011;51349;52.424;10.840;2023-06-19T05:36:36;9.18;;;8.48;;
64868;SDS011;51349;52.424;10.840;2023-06-19T05:41:37;8.55;;;7.95;;
64868;SDS011;51349;52.424;10.840;2023-06-19T05:46:37;9.73;;;8.90;;
64868;SDS011;51349;52.424;10.840;2023-06-19T05:51:38;9.75;;;8.88;;
64868;SDS011;51349;52.424;10.840;2023-06-19T05:56:39;9.40;;;8.35;;
64868;SDS011;51349;52.424;10.840;2023-06-19T06:01:39;10.05;;;9.15;;
64868;SDS011;51349;52.424;10.840;2023-06-19T06:06:40;9.77;;;8.98;;
64868;SDS011;51349;52.424;10.840;2023-06-19T06:11:41;10.88;;;9.85;;
64868;SDS011;51349;52.424;10.840;2023-06-19T06:16:42;9.50;;;8.80;;
64868;SDS011;51349;52.424;10.840;2023-06-19T06:21:42;9.25;;;8.50;;
64868;SDS011;51349;52.424;10.840;2023-06-19T06:26:43;9.27;;;8.48;;
64868;SDS011;51349;52.424;10.840;2023-06-19T06:31:45;10.23;;;9.50;;
64868;SDS011;51349;52.424;10.840;2023-06-19T06:36:47;12.60;;;11.43;;
64868;SDS011;51349;52.424;10.840;2023-06-19T06:41:47;9.07;;;8.38;;
64868;SDS011;51349;52.424;10.840;2023-06-19T06:46:48;9.88;;;8.98;;
64868;SDS011;51349;52.424;10.840;2023-06-19T06:51:49;11.52;;;9.13;;
64868;SDS011;51349;52.424;10.840;2023-06-19T06:56:49;10.25;;;9.10;;
64868;SDS011;51349;52.424;10.840;2023-06-19T07:01:53;8.65;;;8.00;;
64868;SDS011;51349;52.424;10.840;2023-06-19T07:06:54;10.35;;;9.13;;
64868;SDS011;51349;52.424;10.840;2023-06-19T07:11:55;11.68;;;9.25;;
64868;SDS011;51349;52.424;10.840;2023-06-19T07:16:56;10.18;;;9.10;;
64868;SDS011;51349;52.424;10.840;2023-06-19T07:21:58;10.60;;;9.75;;
64868;SDS011;51349;52.424;10.840;2023-06-19T07:26:59;11.40;;;10.40;;
64868;SDS011;51349;52.424;10.840;2023-06-19T07:37:57;10.07;;;9.32;;
64868;SDS011;51349;52.424;10.840;2023-06-19T07:42:58;11.85;;;10.60;;
64868;SDS011;51349;52.424;10.840;2023-06-19T07:47:58;10.98;;;10.13;;
64868;SDS011;51349;52.424;10.840;2023-06-19T07:52:59;10.70;;;9.50;;
64868;SDS011;51349;52.424;10.840;2023-06-19T07:57:59;12.88;;;10.00;;
64868;SDS011;51349;52.424;10.840;2023-06-19T08:03:00;11.35;;;10.35;;
64868;SDS011;51349;52.424;10.840;2023-06-19T08:08:01;9.52;;;8.65;;
64868;SDS011;51349;52.424;10.840;2023-06-19T08:13:02;10.13;;;9.32;;
64868;SDS011;51349;52.424;10.840;2023-06-19T08:18:02;9.40;;;8.50;;
64868;SDS011;51349;52.424;10.840;2023-06-19T08:23:03;9.90;;;9.02;;
64868;SDS011;51349;52.424;10.840;2023-06-19T08:28:04;9.93;;;8.95;;
64868;SDS011;51349;52.424;10.840;2023-06-19T08:33:05;10.02;;;8.57;;
64868;SDS011;51349;52.424;10.840;2023-06-19T08:38:06;8.80;;;7.97;;
64868;SDS011;51349;52.424;10.840;2023-06-19T08:43:06;9.15;;;8.43;;
64868;SDS011;51349;52.424;10.840;2023-06-19T08:48:07;8.32;;;7.72;;
64868;SDS011;51349;52.424;10.840;2023-06-19T08:53:14;9.13;;;8.18;;
64868;SDS011;51349;52.424;10.840;2023-06-19T08:58:20;8.48;;;7.85;;
64868;SDS011;51349;52.424;10.840;2023-06-19T09:03:23;8.82;;;8.10;;
64868;SDS011;51349;52.424;10.840;2023-06-19T09:08:23;9.45;;;8.73;;
64868;SDS011;51349;52.424;10.840;2023-06-19T09:13:24;9.18;;;8.48;;
64868;SDS011;51349;52.424;10.840;2023-06-19T09:18:25;8.68;;;8.07;;
64868;SDS011;51349;52.424;10.840;2023-06-19T09:23:26;9.38;;;8.70;;
64868;SDS011;51349;52.424;10.840;2023-06-19T09:28:27;9.00;;;8.10;;
64868;SDS011;51349;52.424;10.840;2023-06-19T09:33:29;9.75;;;8.40;;
64868;SDS011;51349;52.424;10.840;2023-06-19T09:38:36;8.68;;;7.90;;
64868;SDS011;51349;52.424;10.840;2023-06-19T09:43:40;6.60;;;6.00;;
64868;SDS011;51349;52.424;10.840;2023-06-19T09:48:44;5.97;;;5.57;;
64868;SDS011;51349;52.424;10.840;2023-06-19T09:53:46;7.18;;;6.68;;
64868;SDS011;51349;52.424;10.840;2023-06-19T09:58:49;6.60;;;6.18;;
64868;SDS011;51349;52.424;10.840;2023-06-19T10:04:00;7.03;;;6.30;;
64868;SDS011;51349;52.424;10.840;2023-06-19T10:09:11;6.50;;;6.10;;
64868;SDS011;51349;52.424;10.840;2023-06-19T10:14:13;6.80;;;6.40;;
64868;SDS011;51349;52.424;10.840;2023-06-19T10:19:18;6.53;;;6.13;;
64868;SDS011;51349;52.424;10.840;2023-06-19T10:24:22;7.13;;;6.55;;
64868;SDS011;51349;52.424;10.840;2023-06-19T10:29:24;7.13;;;6.32;;
64868;SDS011;51349;52.424;10.840;2023-06-19T10:34:33;7.30;;;6.53;;
64868;SDS011;51349;52.424;10.840;2023-06-19T10:39:35;6.82;;;6.43;;
64868;SDS011;51349;52.424;10.840;2023-06-19T10:44:35;7.38;;;6.75;;
64868;SDS011;51349;52.424;10.840;2023-06-19T10:49:42;6.75;;;6.30;;
64868;SDS011;51349;52.424;10.840;2023-06-19T10:54:42;8.10;;;7.60;;
64868;SDS011;51349;52.424;10.840;2023-06-19T10:59:43;8.35;;;7.85;;
64868;SDS011;51349;52.424;10.840;2023-06-19T11:04:44;8.07;;;7.55;;
64868;SDS011;51349;52.424;10.840;2023-06-19T11:09:45;7.65;;;7.15;;
64868;SDS011;51349;52.424;10.840;2023-06-19T11:14:46;7.63;;;7.10;;
64868;SDS011;51349;52.424;10.840;2023-06-19T11:19:47;7.63;;;7.13;;
64868;SDS011;51349;52.424;10.840;2023-06-19T11:24:49;8.00;;;7.38;;
64868;SDS011;51349;52.424;10.840;2023-06-19T11:29:54;7.95;;;7.45;;
64868;SDS011;51349;52.424;10.840;2023-06-19T11:35:03;8.70;;;8.20;;
64868;SDS011;51349;52.424;10.840;2023-06-19T11:40:07;8.00;;;7.50;;
64868;SDS011;51349;52.424;10.840;2023-06-19T11:45:15;8.07;;;7.60;;
64868;SDS011;51349;52.424;10.840;2023-06-19T11:50:16;8.02;;;7.43;;
64868;SDS011;51349;52.424;10.840;2023-06-19T11:55:17;7.72;;;7.22;;
64868;SDS011;51349;52.424;10.840;2023-06-19T12:00:17;7.72;;;7.22;;
64868;SDS011;51349;52.424;10.840;2023-06-19T12:05:18;7.63;;;7.13;;
64868;SDS011;51349;52.424;10.840;2023-06-19T12:10:19;7.63;;;7.13;;
64868;SDS011;51349;52.424;10.840;2023-06-19T12:15:20;8.18;;;7.57;;
64868;SDS011;51349;52.424;10.840;2023-06-19T12:20:21;8.32;;;7.18;;
64868;SDS011;51349;52.424;10.840;2023-06-19T12:25:21;7.60;;;7.10;;
64868;SDS011;51349;52.424;10.840;2023-06-19T12:30:22;7.63;;;7.13;;
64868;SDS011;51349;52.424;10.840;2023-06-19T12:35:23;8.20;;;7.57;;
64868;SDS011;51349;52.424;10.840;2023-06-19T12:40:25;8.20;;;7.63;;
64868;SDS011;51349;52.424;10.840;2023-06-19T12:45:26;7.78;;;7.13;;
64868;SDS011;51349;52.424;10.840;2023-06-19T12:50:27;8.20;;;7.60;;
64868;SDS011;51349;52.424;10.840;2023-06-19T12:55:27;8.38;;;7.68;;
64868;SDS011;51349;52.424;10.840;2023-06-19T13:00:28;7.53;;;7.03;;
64868;SDS011;51349;52.424;10.840;2023-06-19T13:05:29;7.20;;;6.80;;
64868;SDS011;51349;52.424;10.840;2023-06-19T13:10:29;6.85;;;6.35;;
64868;SDS011;51349;52.424;10.840;2023-06-19T13:15:30;6.47;;;5.97;;
64868;SDS011;51349;52.424;10.840;2023-06-19T13:20:32;5.88;;;5.47;;
64868;SDS011;51349;52.424;10.840;2023-06-19T13:25:33;5.90;;;5.57;;
64868;SDS011;51349;52.424;10.840;2023-06-19T13:30:33;5.60;;;5.25;;
64868;SDS011;51349;52.424;10.840;2023-06-19T13:35:34;6.20;;;5.70;;
64868;SDS011;51349;52.424;10.840;2023-06-19T13:40:35;6.40;;;5.90;;
64868;SDS011;51349;52.424;10.840;2023-06-19T13:45:35;6.07;;;5.57;;
64868;SDS011;51349;52.424;10.840;2023-06-19T13:50:38;6.22;;;5.72;;
64868;SDS011;51349;52.424;10.840;2023-06-19T13:55:39;5.88;;;5.38;;
64868;SDS011;51349;52.424;10.840;2023-06-19T14:00:39;6.10;;;5.70;;
64868;SDS011;51349;52.424;10.840;2023-06-19T14:05:40;6.50;;;6.10;;
64868;SDS011;51349;52.424;10.840;2023-06-19T14:10:41;6.50;;;5.97;;
64868;SDS011;51349;52.424;10.840;2023-06-19T14:15:41;6.07;;;5.60;;
64868;SDS011;51349;52.424;10.840;2023-06-19T14:20:45;5.63;;;5.22;;
64868;SDS011;51349;52.424;10.840;2023-06-19T14:25:46;6.10;;;5.70;;
64868;SDS011;51349;52.424;10.840;2023-06-19T14:30:50;5.20;;;4.90;;
64868;SDS011;51349;52.424;10.840;2023-06-19T14:35:51;5.47;;;5.18;;
64868;SDS011;51349;52.424;10.840;2023-06-19T14:40:52;5.53;;;5.13;;
64868;SDS011;51349;52.424;10.840;2023-06-19T14:45:53;5.63;;;5.15;;
64868;SDS011;51349;52.424;10.840;2023-06-19T14:50:53;4.97;;;4.68;;
64868;SDS011;51349;52.424;10.840;2023-06-19T14:55:56;4.55;;;4.20;;
64868;SDS011;51349;52.424;10.840;2023-06-19T18:11:17;3.72;;;3.28;;
64868;SDS011;51349;52.424;10.840;2023-06-19T18:16:17;3.15;;;2.92;;
64868;SDS011;51349;52.424;10.840;2023-06-19T18:21:19;3.10;;;2.90;;
64868;SDS011;51349;52.424;10.840;2023-06-19T18:26:20;3.10;;;2.90;;
64868;SDS011;51349;52.424;10.840;2023-06-19T18:31:21;3.33;;;3.13;;
64868;SDS011;51349;52.424;10.840;2023-06-19T18:36:22;3.30;;;3.10;;
64868;SDS011;51349;52.424;10.840;2023-06-19T18:41:24;3.00;;;2.80;;
64868;SDS011;51349;52.424;10.840;2023-06-19T18:46:25;3.10;;;2.90;;
64868;SDS011;51349;52.424;10.840;2023-06-19T18:51:25;2.88;;;2.78;;
64868;SDS011;51349;52.424;10.840;2023-06-19T18:56:26;2.88;;;2.75;;
64868;SDS011;51349;52.424;10.840;2023-06-19T19:01:26;3.72;;;2.35;;
64868;SDS011;51349;52.424;10.840;2023-06-19T19:11:35;2.50;;;2.40;;
64868;SDS011;51349;52.424;10.840;2023-06-19T19:16:35;2.38;;;2.28;;
64868;SDS011;51349;52.424;10.840;2023-06-19T19:21:36;2.67;;;2.40;;
64868;SDS011;51349;52.424;10.840;2023-06-19T19:31:41;2.50;;;2.40;;
64868;SDS011;51349;52.424;10.840;2023-06-19T19:36:42;2.63;;;2.53;;
64868;SDS011;51349;52.424;10.840;2023-06-19T19:41:43;2.30;;;2.20;;
64868;SDS011;51349;52.424;10.840;2023-06-19T19:46:44;2.42;;;2.33;;
64868;SDS011;51349;52.424;10.840;2023-06-19T19:51:45;2.50;;;2.30;;
64868;SDS011;51349;52.424;10.840;2023-06-19T19:56:45;3.72;;;2.72;;
64868;SDS011;51349;52.424;10.840;2023-06-19T20:01:46;2.70;;;2.50;;
64868;SDS011;51349;52.424;10.840;2023-06-19T20:06:47;2.80;;;2.60;;
64868;SDS011;51349;52.424;10.840;2023-06-19T20:11:48;3.10;;;2.75;;
64868;SDS011;51349;52.424;10.840;2023-06-19T20:16:49;4.05;;;2.85;;
64868;SDS011;51349;52.424;10.840;2023-06-19T20:21:50;3.40;;;3.10;;
64868;SDS011;51349;52.424;10.840;2023-06-19T20:26:51;3.28;;;2.97;;
64868;SDS011;51349;52.424;10.840;2023-06-19T20:31:51;3.50;;;3.30;;
64868;SDS011;51349;52.424;10.840;2023-06-19T20:36:52;4.63;;;4.25;;
64868;SDS011;51349;52.424;10.840;2023-06-19T20:41:53;3.47;;;3.20;;
64868;SDS011;51349;52.424;10.840;2023-06-19T20:46:53;3.30;;;3.10;;
64868;SDS011;51349;52.424;10.840;2023-06-19T20:51:54;4.05;;;3.30;;
64868;SDS011;51349;52.424;10.840;2023-06-19T20:56:55;3.42;;;3.22;;
64868;SDS011;51349;52.424;10.840;2023-06-19T21:01:55;3.72;;;3.50;;
64868;SDS011;51349;52.424;10.840;2023-06-19T21:06:59;3.63;;;3.42;;
64868;SDS011;51349;52.424;10.840;2023-06-19T21:12:00;3.90;;;3.60;;
64868;SDS011;51349;52.424;10.840;2023-06-19T21:17:01;3.92;;;3.40;;
64868;SDS011;51349;52.424;10.840;2023-06-19T21:22:02;3.60;;;3.30;;
64868;SDS011;51349;52.424;10.840;2023-06-19T21:27:04;3.72;;;3.40;;
64868;SDS011;51349;52.424;10.840;2023-06-19T21:32:05;3.88;;;3.65;;
64868;SDS011;51349;52.424;10.840;2023-06-19T21:37:07;3.83;;;3.60;;
64868;SDS011;51349;52.424;10.840;2023-06-19T21:42:08;4.03;;;3.72;;
64868;SDS011;51349;52.424;10.840;2023-06-19T21:47:08;3.60;;;3.40;;
64868;SDS011;51349;52.424;10.840;2023-06-19T21:52:09;3.90;;;3.70;;
64868;SDS011;51349;52.424;10.840;2023-06-19T21:57:10;3.90;;;3.70;;
64868;SDS011;51349;52.424;10.840;2023-06-19T22:02:11;4.10;;;3.90;;
64868;SDS011;51349;52.424;10.840;2023-06-19T22:07:13;3.72;;;3.53;;
64868;SDS011;51349;52.424;10.840;2023-06-19T22:12:16;4.25;;;3.85;;
64868;SDS011;51349;52.424;10.840;2023-06-19T22:17:17;4.32;;;3.78;;
64868;SDS011;51349;52.424;10.840;2023-06-19T22:22:21;4.07;;;3.80;;
64868;SDS011;51349;52.424;10.840;2023-06-19T22:27:22;4.25;;;3.90;;
64868;SDS011;51349;52.424;10.840;2023-06-19T22:32:22;4.43;;;4.13;;
64868;SDS011;51349;52.424;10.840;2023-06-19T22:37:23;4.50;;;4.10;;
64868;SDS011;51349;52.424;10.840;2023-06-19T22:42:24;4.15;;;3.95;;
64868;SDS011;51349;52.424;10.840;2023-06-19T22:47:24;4.70;;;4.40;;
64868;SDS011;51349;52.424;10.840;2023-06-19T22:52:25;4.45;;;4.25;;
64868;SDS011;51349;52.424;10.840;2023-06-19T22:57:26;5.00;;;4.60;;
64868;SDS011;51349;52.424;10.840;2023-06-19T23:02:26;4.60;;;4.30;;
64868;SDS011;51349;52.424;10.840;2023-06-19T23:07:27;4.40;;;4.10;;
64868;SDS011;51349;52.424;10.840;2023-06-19T23:12:31;4.97;;;4.15;;
64868;SDS011;51349;52.424;10.840;2023-06-19T23:17:32;4.57;;;4.28;;
64868;SDS011;51349;52.424;10.840;2023-06-19T23:22:32;4.53;;;4.22;;
64868;SDS011;51349;52.424;10.840;2023-06-19T23:27:33;4.40;;;4.10;;
64868;SDS011;51349;52.424;10.840;2023-06-19T23:32:34;4.53;;;4.05;;
64868;SDS011;51349;52.424;10.840;2023-06-19T23:37:35;4.75;;;4.45;;
64868;SDS011;51349;52.424;10.840;2023-06-19T23:42:35;4.65;;;4.28;;
64868;SDS011;51349;52.424;10.840;2023-06-19T23:47:36;4.53;;;4.32;;
64868;SDS011;51349;52.424;10.840;2023-06-19T23:52:38;4.05;;;3.85;;
64868;SDS011;51349;52.424;10.840;2023-06-19T23:57:39;4.53;;;4.30;;
